Impacts METAR Board
IDs:

KGRK - Killeen-Ft Hood Rgnl, TX, US

Updated at: 0100 UTC 15 Aug 2020
Potential Impact None Slight Moderate High
Time 14/13Z 14/14Z 14/15Z 14/16Z 14/17Z 14/18Z 14/19Z 14/20Z 14/21Z 14/22Z 14/23Z 15/00Z 15/01Z
Temp79 83 88 92 96 100 100 103 105 105 104 103 98
Dewpt71 71 70 67 64 63 60 57 54 53 55 53 56
Altim29.93 29.94 29.95 29.95 29.94 29.91 29.89 29.87 29.85 29.82 29.81 29.81 29.82
VIS8 9 10 10 10 10 10 8 10 10 10 10 10
CIG-- -- -- -- -- -- -- -- -- -- -- -- --
CoverCLRCLRCLRCLRCLRFEWCLRCLRCLRCLRCLRCLRCLR
FltCatVFRVFRVFRVFRVFRVFRVFRVFRVFRVFRVFRVFRVFR
WX--------------------------
WDir200200200210170170160130150190140160140
WSpd6 10 10 9 11 10 10 10 11 5 10 11 14
WGst-- -- 15 -- 14 16 -- 15 -- -- -- -- --
Raw hourly METARs
KGRK 141258Z AUTO 20006KT 8SM CLR 26/21 A2993 RMK AO2 SLPNO T02610214
KGRK 141358Z AUTO 20010KT 9SM CLR 28/22 A2994 RMK AO2 SLP126 T02810216
KGRK 141458Z AUTO 20010G15KT 10SM CLR 31/21 A2995 RMK AO2 SLP129 T03090209 52009
KGRK 141558Z AUTO 21009KT 10SM CLR 33/20 A2995 RMK AO2 SLP128 T03340195
KGRK 141658Z AUTO 17011G14KT 10SM CLR 36/18 A2994 RMK AO2 SLP125 T03550177
KGRK 141758Z AUTO 17010G16KT 10SM FEW340 38/17 A2991 RMK AO2 SLP114 T03750171 10375 20254 58012
KGRK 141858Z AUTO 16010KT 10SM CLR 38/16 A2989 RMK AO2 SLP107 T03790156
KGRK 141958Z AUTO 13010G15KT 8SM CLR 39/14 A2987 RMK AO2 SLP101 T03930141
KGRK 142058Z AUTO 15011KT 10SM CLR 40/12 A2985 RMK AO2 SLP094 T04040123 57022
KGRK 142158Z AUTO 19005KT 10SM CLR 41/12 A2982 RMK AO2 SLP084 T04070117
KGRK 142258Z AUTO 14010KT 10SM CLR 40/13 A2981 RMK AO2 SLP080 T04010129
KGRK 142358Z AUTO 16011KT 10SM CLR 39/12 A2981 RMK AO2 SLP081 T03940115 10410 20371 56013
KGRK 150058Z AUTO 14014KT 10SM CLR 37/14 A2982 RMK AO2 SLP084 T03680135